Time;durP1;ratioP1;P1;durP2;ratioP2;P2;SDS_P1;SDS_P2;PMS_P1;PMS_P2;Temp;Humidity;BMP_temperature;BMP_pressure;BME280_temperature;BME280_humidity;BME280_pressure;Samples;Min_cycle;Max_cycle;Signal;HPM_P1;HPM_P2
2021/08/18 00:00:46;;;;;;;6.38;4.90;;;;;;;18.19;57.65;100657.91;4945022;28;20030;-49
2021/08/18 00:03:11;;;;;;;6.05;4.50;;;;;;;18.17;57.78;100662.44;4978526;28;20080;-48
2021/08/18 00:05:38;;;;;;;6.97;5.45;;;;;;;18.15;57.90;100654.50;4974578;28;20041;-48
2021/08/18 00:08:05;;;;;;;5.57;4.55;;;;;;;18.15;57.72;100666.97;4972687;28;20023;-48
2021/08/18 00:10:31;;;;;;;5.18;4.38;;;;;;;18.15;57.72;100664.28;4960450;28;20102;-48
2021/08/18 00:12:57;;;;;;;5.88;4.68;;;;;;;18.13;57.95;100667.03;4975422;28;20115;-48
2021/08/18 00:15:24;;;;;;;6.38;4.95;;;;;;;18.12;57.87;100659.97;4973749;28;20102;-48
2021/08/18 00:17:51;;;;;;;6.82;4.70;;;;;;;18.12;57.93;100654.63;4974877;28;20022;-48
2021/08/18 00:20:16;;;;;;;5.70;4.82;;;;;;;18.13;57.95;100656.34;4959880;28;20105;-48
2021/08/18 00:22:43;;;;;;;6.13;4.95;;;;;;;18.12;58.19;100664.41;4977860;28;20126;-48
2021/08/18 00:25:09;;;;;;;5.32;4.80;;;;;;;18.12;57.83;100659.97;4975414;28;20019;-48
2021/08/18 00:27:34;;;;;;;7.32;5.15;;;;;;;18.11;58.04;100660.00;4974235;28;20030;-48
2021/08/18 00:30:00;;;;;;;5.70;4.43;;;;;;;18.09;58.26;100660.06;4974466;28;20023;-48
2021/08/18 00:32:25;;;;;;;6.10;4.60;;;;;;;18.10;58.06;100658.28;4977410;28;20498;-48
2021/08/18 00:34:52;;;;;;;6.50;5.65;;;;;;;18.08;58.26;100647.66;4974640;28;20027;-48
2021/08/18 00:37:17;;;;;;;5.40;4.38;;;;;;;18.09;58.11;100649.41;4974577;28;20054;-48
2021/08/18 00:39:44;;;;;;;5.95;4.65;;;;;;;18.08;57.95;100653.81;4973201;28;20065;-48
2021/08/18 00:42:09;;;;;;;5.47;4.15;;;;;;;18.07;58.16;100652.09;4977381;28;20622;-48
2021/08/18 00:44:35;;;;;;;5.82;5.07;;;;;;;18.06;58.45;100645.03;4977553;28;20023;-48
2021/08/18 00:47:03;;;;;;;6.75;4.95;;;;;;;18.07;58.15;100649.44;4976456;28;20495;-48
2021/08/18 00:49:28;;;;;;;6.57;4.80;;;;;;;18.05;58.45;100640.63;4959204;28;20026;-48
2021/08/18 00:51:54;;;;;;;6.30;5.15;;;;;;;18.04;58.18;100651.38;4977251;28;20425;-48
2021/08/18 00:54:20;;;;;;;5.55;4.65;;;;;;;18.04;58.41;100644.22;4979077;28;20046;-48
2021/08/18 00:56:46;;;;;;;5.70;5.00;;;;;;;18.04;58.47;100640.69;4990446;28;20045;-48
2021/08/18 00:59:11;;;;;;;6.57;4.40;;;;;;;18.02;58.08;100638.09;4991281;28;20390;-48
2021/08/18 01:01:37;;;;;;;7.22;4.68;;;;;;;18.03;58.16;100637.16;4991490;28;20041;-48
2021/08/18 01:04:04;;;;;;;5.68;4.72;;;;;;;18.02;58.10;100637.22;4991113;28;20596;-48
2021/08/18 01:06:29;;;;;;;5.55;4.20;;;;;;;18.02;58.49;100637.22;4991147;28;20022;-48
2021/08/18 01:08:54;;;;;;;5.90;4.80;;;;;;;18.00;58.21;100645.28;4989755;28;20030;-48
2021/08/18 01:11:20;;;;;;;6.20;4.75;;;;;;;18.00;58.29;100642.59;4991175;28;20386;-48
2021/08/18 01:13:45;;;;;;;5.68;4.13;;;;;;;18.01;58.31;100651.50;4989592;28;20026;-48
2021/08/18 01:16:11;;;;;;;5.70;4.20;;;;;;;17.99;58.47;100651.56;4991099;28;20054;-48
2021/08/18 01:18:36;;;;;;;4.80;4.32;;;;;;;18.00;58.28;100655.09;4991351;28;20097;-48
2021/08/18 01:21:02;;;;;;;5.00;4.50;;;;;;;17.98;58.05;100649.81;4990377;28;20078;-48
2021/08/18 01:23:28;;;;;;;5.00;4.43;;;;;;;17.98;58.12;100647.16;4991003;28;20393;-48
2021/08/18 01:25:55;;;;;;;5.10;4.22;;;;;;;17.96;58.60;100643.66;4990960;28;20026;-48
2021/08/18 01:28:24;;;;;;;6.53;5.00;;;;;;;17.97;58.27;100640.06;4990763;28;20367;-48
2021/08/18 01:30:49;;;;;;;5.13;4.43;;;;;;;17.96;58.18;100638.31;4988247;28;20022;-48
2021/08/18 01:33:16;;;;;;;5.22;4.70;;;;;;;17.97;58.27;100640.06;4990833;28;20030;-48
2021/08/18 01:35:46;;;;;;;5.80;4.13;;;;;;;17.94;58.48;100635.72;4990815;28;20069;-48
2021/08/18 01:38:15;;;;;;;6.20;4.70;;;;;;;17.94;58.15;100640.22;4988210;28;20446;-48
2021/08/18 01:40:44;;;;;;;5.40;4.15;;;;;;;17.94;58.43;100634.88;4990828;28;20030;-48
2021/08/18 01:43:09;;;;;;;4.47;3.70;;;;;;;17.94;58.31;100640.22;4991269;28;20050;-48
2021/08/18 01:45:37;;;;;;;4.90;4.30;;;;;;;17.93;58.28;100638.44;4990776;28;20073;-48
2021/08/18 01:48:16;;;;;;;5.75;4.10;;;;;;;17.93;58.26;100638.44;4990875;28;20074;-48
2021/08/18 01:50:44;;;;;;;5.38;4.82;;;;;;;17.91;58.65;100635.84;4992226;28;20050;-48
2021/08/18 01:53:15;;;;;;;6.10;4.47;;;;;;;17.91;58.42;100640.31;4990236;28;20035;-48
2021/08/18 01:55:40;;;;;;;6.38;4.32;;;;;;;17.90;58.33;100643.91;4989066;28;20053;-48
2021/08/18 01:58:06;;;;;;;4.85;3.92;;;;;;;17.89;58.26;100637.72;4990982;28;20483;-48
2021/08/18 02:00:31;;;;;;;5.30;4.25;;;;;;;17.90;58.69;100642.13;4990696;28;20128;-48
2021/08/18 02:02:56;;;;;;;5.40;4.00;;;;;;;17.89;58.37;100647.50;4990338;28;20022;-48
2021/08/18 02:05:22;;;;;;;5.93;5.22;;;;;;;17.87;58.27;100642.22;4990024;28;20026;-48
2021/08/18 02:07:51;;;;;;;5.18;4.47;;;;;;;17.89;58.18;100647.50;4992354;28;20077;-48
2021/08/18 02:10:17;;;;;;;4.65;4.22;;;;;;;17.87;58.32;100644.06;4990061;28;20056;-48
2021/08/18 02:12:43;;;;;;;4.47;3.90;;;;;;;17.86;58.10;100643.16;4992780;28;20033;-48
2021/08/18 02:15:15;;;;;;;5.07;3.58;;;;;;;17.87;58.23;100646.72;4990332;28;20470;-48
2021/08/18 02:17:40;;;;;;;4.38;3.90;;;;;;;17.85;58.46;100644.09;4993774;28;20553;-48
2021/08/18 02:20:25;;;;;;;4.78;4.15;;;;;;;17.85;58.50;100637.91;4994401;28;20121;-48
2021/08/18 02:22:50;;;;;;;6.18;4.43;;;;;;;17.85;58.37;100635.22;4991792;28;20026;-48
2021/08/18 02:25:15;;;;;;;4.97;4.18;;;;;;;17.82;58.26;100636.22;4995379;28;20026;-48
2021/08/18 02:27:41;;;;;;;5.03;4.28;;;;;;;17.81;58.20;100630.00;4994769;28;20022;-48
2021/08/18 02:30:10;;;;;;;5.55;4.10;;;;;;;17.83;58.54;100644.16;4994639;28;20081;-48
2021/08/18 02:32:35;;;;;;;5.28;4.53;;;;;;;17.81;58.33;100630.00;4992806;28;20041;-48
2021/08/18 02:35:00;;;;;;;5.05;4.28;;;;;;;17.81;58.20;100626.50;4994076;28;20865;-48
2021/08/18 02:37:26;;;;;;;5.22;4.72;;;;;;;17.82;58.28;100628.22;4994987;28;20021;-48
2021/08/18 02:39:52;;;;;;;4.88;4.38;;;;;;;17.78;58.49;100624.78;4993109;28;20385;-48
2021/08/18 02:42:17;;;;;;;4.38;3.97;;;;;;;17.77;58.03;100611.53;4998676;28;20081;-48
2021/08/18 02:44:43;;;;;;;4.82;4.25;;;;;;;17.80;58.56;100628.28;4995820;28;20483;-48
2021/08/18 02:47:08;;;;;;;5.15;4.03;;;;;;;17.78;58.39;100619.44;4994984;28;20049;-48
2021/08/18 02:49:34;;;;;;;5.07;4.28;;;;;;;17.77;58.39;100614.22;4993932;28;20037;-48
2021/08/18 02:51:59;;;;;;;5.32;3.95;;;;;;;17.78;58.34;100611.44;4993448;28;20125;-48
2021/08/18 02:54:25;;;;;;;4.47;3.90;;;;;;;17.75;58.28;100616.94;4993368;28;20066;-48
2021/08/18 02:56:52;;;;;;;5.75;4.18;;;;;;;17.76;58.14;100613.34;4993951;28;20029;-48
2021/08/18 02:59:17;;;;;;;4.60;4.03;;;;;;;17.75;57.97;100614.28;4992781;28;20026;-48
2021/08/18 03:01:42;;;;;;;4.82;4.15;;;;;;;17.75;58.25;100613.38;4993787;28;20089;-48
2021/08/18 03:04:08;;;;;;;5.80;4.13;;;;;;;17.73;58.38;100626.78;4992970;28;20074;-48
2021/08/18 03:06:33;;;;;;;5.07;4.13;;;;;;;17.73;58.06;100620.56;4992545;28;20470;-48
2021/08/18 03:08:59;;;;;;;6.10;4.30;;;;;;;17.72;58.13;100609.06;4992961;28;20276;-48
2021/08/18 03:11:25;;;;;;;4.93;4.07;;;;;;;17.70;58.14;100606.44;4989436;28;20101;-48
2021/08/18 03:13:50;;;;;;;4.55;3.90;;;;;;;17.72;58.08;100609.06;4993415;28;20355;-48
2021/08/18 03:16:15;;;;;;;4.15;3.78;;;;;;;17.70;58.46;100610.91;4993440;28;20077;-48
2021/08/18 03:18:41;;;;;;;5.88;4.43;;;;;;;17.69;58.34;100609.16;4993122;28;20061;-48
2021/08/18 03:21:06;;;;;;;5.13;4.32;;;;;;;17.69;58.79;100606.50;4993480;28;20062;-48
2021/08/18 03:23:31;;;;;;;4.88;4.25;;;;;;;17.68;58.74;100618.13;4993710;28;20170;-48
2021/08/18 03:25:57;;;;;;;4.75;4.07;;;;;;;17.67;58.55;100621.69;4992671;28;20045;-48
2021/08/18 03:28:23;;;;;;;4.72;3.97;;;;;;;17.68;58.36;100612.78;4993268;28;20073;-48
2021/08/18 03:30:49;;;;;;;4.75;3.80;;;;;;;17.66;58.54;100620.84;4992110;28;20451;-48
2021/08/18 03:33:14;;;;;;;4.35;3.92;;;;;;;17.66;58.52;100620.84;4993079;28;20116;-47
2021/08/18 03:35:39;;;;;;;5.20;4.13;;;;;;;17.65;58.75;100616.44;4993516;28;20038;-48
2021/08/18 03:38:06;;;;;;;4.45;3.65;;;;;;;17.64;58.55;100613.84;4994490;28;20030;-48
2021/08/18 03:40:31;;;;;;;6.15;4.25;;;;;;;17.65;58.79;100612.91;4992540;28;20030;-48
2021/08/18 03:42:56;;;;;;;6.65;4.43;;;;;;;17.64;58.58;100613.84;4993942;28;20478;-48
2021/08/18 03:45:22;;;;;;;5.00;3.88;;;;;;;17.63;58.69;100612.94;4998505;28;20458;-48
2021/08/18 03:47:47;;;;;;;4.90;4.40;;;;;;;17.62;58.81;100613.00;4991357;28;20041;-48
2021/08/18 03:50:12;;;;;;;5.97;3.83;;;;;;;17.63;58.57;100615.63;4993679;28;20030;-48
2021/08/18 03:52:39;;;;;;;5.65;3.92;;;;;;;17.63;58.90;100612.06;4998028;28;20034;-48
2021/08/18 03:55:05;;;;;;;5.35;3.95;;;;;;;17.62;58.65;100603.22;4994286;28;20504;-48
2021/08/18 03:57:30;;;;;;;5.78;4.32;;;;;;;17.63;58.80;100604.06;4997462;28;20034;-48
2021/08/18 03:59:55;;;;;;;5.13;4.25;;;;;;;17.62;58.71;100605.00;5011801;28;20029;-48
2021/08/18 04:02:21;;;;;;;4.93;4.18;;;;;;;17.61;58.83;100595.28;4999380;28;20476;-48
2021/08/18 04:04:46;;;;;;;4.15;3.75;;;;;;;17.61;58.72;100593.47;4992957;28;20085;-48
2021/08/18 04:07:11;;;;;;;4.70;3.83;;;;;;;17.61;58.96;100596.13;4993705;28;20026;-48
2021/08/18 04:09:37;;;;;;;6.30;4.05;;;;;;;17.60;59.21;100590.88;4992953;28;20490;-47
2021/08/18 04:12:02;;;;;;;5.13;4.40;;;;;;;17.60;58.96;100596.22;4991933;28;20096;-48
2021/08/18 04:14:27;;;;;;;5.85;3.67;;;;;;;17.58;59.10;100596.28;4994375;28;20022;-47
2021/08/18 04:16:53;;;;;;;5.00;3.97;;;;;;;17.58;58.87;100601.59;4997955;28;20121;-47
2021/08/18 04:19:18;;;;;;;4.57;3.92;;;;;;;17.59;59.33;100602.47;4992183;28;20026;-48
2021/08/18 04:21:43;;;;;;;4.97;3.42;;;;;;;17.56;58.93;100593.66;4995435;28;20512;-47
2021/08/18 04:24:09;;;;;;;5.07;4.25;;;;;;;17.55;59.04;100597.25;4996148;28;20056;-48
2021/08/18 04:26:34;;;;;;;4.30;3.78;;;;;;;17.55;59.07;100596.41;4995607;28;20284;-48
2021/08/18 04:28:59;;;;;;;4.25;3.78;;;;;;;17.54;59.28;100600.00;4996305;28;20022;-48
2021/08/18 04:31:24;;;;;;;4.22;3.78;;;;;;;17.55;59.18;100599.06;4995089;28;20386;-48
2021/08/18 04:33:50;;;;;;;4.38;3.78;;;;;;;17.54;59.08;100595.50;4992530;28;20037;-48
2021/08/18 04:36:16;;;;;;;4.95;3.60;;;;;;;17.53;58.90;100585.78;4996188;28;20057;-48
2021/08/18 04:38:41;;;;;;;6.50;4.20;;;;;;;17.52;59.06;100592.06;4994952;28;20105;-48
2021/08/18 04:41:06;;;;;;;6.55;4.35;;;;;;;17.52;59.28;100592.06;4991680;28;20058;-48
2021/08/18 04:43:32;;;;;;;5.75;4.28;;;;;;;17.53;59.42;100596.44;4991031;28;20054;-48
2021/08/18 04:45:57;;;;;;;4.40;3.60;;;;;;;17.54;59.15;100590.19;4991647;28;20564;-47
2021/08/18 04:48:22;;;;;;;5.03;3.72;;;;;;;17.52;59.30;100586.72;4990409;28;20034;-47
2021/08/18 04:50:48;;;;;;;4.65;3.33;;;;;;;17.51;59.37;100592.13;4991943;28;20018;-47
2021/08/18 04:53:13;;;;;;;4.82;4.20;;;;;;;17.51;59.46;100592.13;4994025;28;20470;-48
2021/08/18 04:55:39;;;;;;;4.43;3.60;;;;;;;17.50;59.22;100588.56;4992058;28;20022;-48
2021/08/18 04:58:05;;;;;;;4.75;3.53;;;;;;;17.52;59.47;100593.84;4993351;28;20030;-47
2021/08/18 05:00:30;;;;;;;5.75;3.55;;;;;;;17.50;59.21;100588.56;4993365;28;20026;-48
2021/08/18 05:02:56;;;;;;;4.90;3.55;;;;;;;17.51;59.32;100595.63;4991331;28;20038;-48
2021/08/18 05:06:02;;;;;;;5.20;4.00;;;;;;;17.49;59.57;100588.63;4997728;28;20129;-48
2021/08/18 05:08:28;;;;;;;4.82;3.90;;;;;;;17.48;59.52;100595.78;4991377;28;20022;-48
2021/08/18 05:10:54;;;;;;;4.28;3.40;;;;;;;17.49;59.50;100578.84;4992925;28;20041;-48
2021/08/18 05:13:19;;;;;;;4.65;3.80;;;;;;;17.50;59.40;100588.56;4992024;28;20034;-48
2021/08/18 05:15:44;;;;;;;4.43;3.33;;;;;;;17.50;59.27;100583.22;4995143;28;20062;-48
2021/08/18 05:18:10;;;;;;;4.47;3.88;;;;;;;17.48;59.23;100587.78;5002719;28;20021;-47
2021/08/18 05:20:35;;;;;;;4.32;3.25;;;;;;;17.50;59.40;100590.38;4995528;28;20072;-47
2021/08/18 05:23:01;;;;;;;4.70;3.28;;;;;;;17.52;59.21;100597.38;4995059;28;20426;-48
2021/08/18 05:25:27;;;;;;;3.83;3.33;;;;;;;17.50;59.41;100601.91;4995844;28;20022;-48
2021/08/18 05:27:52;;;;;;;4.22;3.83;;;;;;;17.48;59.75;100597.56;4994969;28;20034;-47
2021/08/18 05:30:17;;;;;;;4.47;3.20;;;;;;;17.48;59.95;100598.44;4992784;28;20033;-48
2021/08/18 05:32:44;;;;;;;3.67;3.05;;;;;;;17.49;59.23;100592.16;4994595;28;20022;-48
2021/08/18 05:35:13;;;;;;;5.13;3.47;;;;;;;17.48;59.68;100601.09;4993021;28;20037;-48
2021/08/18 05:37:41;;;;;;;4.40;3.65;;;;;;;17.53;59.01;100596.44;4992928;28;20033;-48
2021/08/18 05:40:07;;;;;;;4.32;3.78;;;;;;;17.51;59.38;100600.97;4993429;28;20112;-48
2021/08/18 05:42:33;;;;;;;3.60;3.20;;;;;;;17.50;59.33;100604.56;4993959;28;20394;-48
2021/08/18 05:44:59;;;;;;;3.55;3.05;;;;;;;17.54;58.93;100606.19;4992458;28;20446;-48
2021/08/18 05:47:24;;;;;;;4.35;3.40;;;;;;;17.54;59.08;100595.50;4994824;28;20278;-47
2021/08/18 05:49:52;;;;;;;4.45;3.25;;;;;;;17.57;59.12;100600.72;4995365;28;20026;-48
2021/08/18 05:52:18;;;;;;;3.35;3.00;;;;;;;17.56;59.22;100599.00;4998404;28;20490;-48
2021/08/18 05:54:43;;;;;;;4.50;3.28;;;;;;;17.59;58.99;100615.78;4992658;28;20084;-48
2021/08/18 05:57:08;;;;;;;4.22;3.15;;;;;;;17.55;59.29;100605.25;4994745;28;20026;-48
2021/08/18 05:59:34;;;;;;;3.55;2.70;;;;;;;17.59;59.12;100602.47;4991408;28;20030;-48
2021/08/18 06:01:59;;;;;;;4.50;2.90;;;;;;;17.61;58.97;100603.28;4997467;28;20560;-49
2021/08/18 06:04:24;;;;;;;4.25;3.20;;;;;;;17.55;59.36;100613.25;4993859;28;20034;-49
2021/08/18 06:06:54;;;;;;;3.60;2.97;;;;;;;17.59;58.99;100607.78;4994288;28;20018;-49
2021/08/18 06:09:19;;;;;;;4.60;3.13;;;;;;;17.60;59.14;100605.06;4990526;28;20370;-49
2021/08/18 06:11:45;;;;;;;5.10;3.45;;;;;;;17.61;59.02;100613.94;4994578;28;20120;-49
2021/08/18 06:14:10;;;;;;;3.50;2.97;;;;;;;17.60;59.08;100617.56;4994209;28;20030;-49
2021/08/18 06:16:35;;;;;;;4.32;3.03;;;;;;;17.58;59.11;100609.59;4995391;28;20026;-49
2021/08/18 06:19:01;;;;;;;3.80;3.17;;;;;;;17.56;59.20;100609.66;4991717;28;20045;-49
2021/08/18 06:21:26;;;;;;;3.85;2.78;;;;;;;17.57;59.15;100615.84;4992080;28;20084;-49
2021/08/18 06:23:54;;;;;;;4.10;3.67;;;;;;;17.59;59.16;100613.13;4991898;28;20018;-49
2021/08/18 06:26:20;;;;;;;3.42;3.03;;;;;;;17.56;59.39;100608.78;4993303;28;20021;-49
2021/08/18 06:28:45;;;;;;;3.97;3.42;;;;;;;17.59;59.28;100613.13;4997748;28;20027;-49
2021/08/18 06:31:10;;;;;;;3.90;2.72;;;;;;;17.55;59.32;100607.91;4994488;28;20068;-49
2021/08/18 06:33:36;;;;;;;3.55;3.10;;;;;;;17.53;59.50;100609.78;4992760;28;20053;-49
2021/08/18 06:36:02;;;;;;;5.20;2.97;;;;;;;17.57;59.44;100615.84;4991812;28;20462;-49
2021/08/18 06:38:28;;;;;;;3.30;2.85;;;;;;;17.55;59.46;100612.38;4992955;28;20022;-49
2021/08/18 06:40:54;;;;;;;3.20;2.90;;;;;;;17.54;59.72;100624.00;4998489;28;20030;-49
2021/08/18 06:43:19;;;;;;;3.13;2.80;;;;;;;17.53;59.68;100615.13;4992008;28;20026;-49
2021/08/18 06:45:45;;;;;;;3.00;2.60;;;;;;;17.51;59.70;100611.63;4991666;28;20061;-49
2021/08/18 06:48:10;;;;;;;3.33;2.90;;;;;;;17.53;59.52;100615.13;4996844;28;20482;-49
2021/08/18 06:50:35;;;;;;;2.85;2.65;;;;;;;17.52;59.60;100616.06;4993684;28;20018;-49
2021/08/18 06:53:00;;;;;;;3.30;2.72;;;;;;;17.52;59.82;100615.16;4994077;28;20034;-49
2021/08/18 06:55:26;;;;;;;3.42;2.40;;;;;;;17.50;59.90;100604.56;4991370;28;20033;-49
2021/08/18 06:57:51;;;;;;;3.45;2.85;;;;;;;17.51;60.02;100606.28;4992997;28;20545;-49
2021/08/18 07:00:17;;;;;;;3.22;2.90;;;;;;;17.51;59.89;100605.44;4993364;28;20021;-49
2021/08/18 07:02:46;;;;;;;3.63;2.72;;;;;;;17.49;59.96;100618.84;4992077;28;20029;-49
2021/08/18 07:05:12;;;;;;;2.88;2.58;;;;;;;17.48;60.00;100613.56;4989764;28;20429;-49
2021/08/18 07:07:37;;;;;;;3.00;2.70;;;;;;;17.48;60.14;100616.22;4998870;28;20072;-49
2021/08/18 07:10:04;;;;;;;3.38;2.90;;;;;;;17.49;60.10;100613.50;4996710;28;20022;-48
2021/08/18 07:12:30;;;;;;;2.97;2.38;;;;;;;17.47;60.30;100610.00;5000104;28;20018;-49
2021/08/18 07:14:55;;;;;;;3.17;2.53;;;;;;;17.49;60.15;100608.16;5002570;28;20028;-49
2021/08/18 07:17:20;;;;;;;3.38;2.70;;;;;;;17.48;60.22;100603.78;4998677;28;20030;-49
2021/08/18 07:19:45;;;;;;;3.17;2.47;;;;;;;17.49;60.15;100602.84;4994304;28;20021;-49
2021/08/18 07:22:11;;;;;;;3.45;2.83;;;;;;;17.47;60.27;100594.00;4999657;28;20026;-49
2021/08/18 07:24:36;;;;;;;2.95;2.60;;;;;;;17.49;60.13;100592.16;4994426;28;20034;-49
2021/08/18 07:27:05;;;;;;;3.60;2.60;;;;;;;17.49;60.07;100585.97;5000849;28;20253;-49
2021/08/18 07:29:30;;;;;;;3.83;2.50;;;;;;;17.49;60.31;100581.50;5001126;28;20069;-49
2021/08/18 07:31:56;;;;;;;3.58;2.50;;;;;;;17.47;60.28;100572.69;4995147;28;20022;-49
2021/08/18 07:34:21;;;;;;;4.40;2.92;;;;;;;17.49;60.26;100570.84;4997408;28;20177;-49
2021/08/18 07:36:47;;;;;;;2.78;2.58;;;;;;;17.48;60.22;100579.78;4997418;28;20018;-49
2021/08/18 07:39:12;;;;;;;2.90;2.55;;;;;;;17.48;60.41;100579.78;4996552;28;20022;-49
2021/08/18 07:41:37;;;;;;;3.17;2.50;;;;;;;17.48;60.42;100586.91;5001598;28;20069;-49
2021/08/18 07:44:02;;;;;;;3.15;2.65;;;;;;;17.47;60.48;100583.34;4993658;28;20030;-49
2021/08/18 07:46:28;;;;;;;3.15;2.38;;;;;;;17.47;60.18;100593.16;4996339;28;20026;-49
2021/08/18 07:48:53;;;;;;;3.80;2.67;;;;;;;17.48;60.59;100602.91;4997114;28;20026;-49
2021/08/18 07:51:18;;;;;;;2.95;2.17;;;;;;;17.47;60.33;100610.00;5001592;28;20549;-49
2021/08/18 07:53:44;;;;;;;3.67;2.75;;;;;;;17.48;60.21;100605.56;4998820;28;20113;-49
2021/08/18 07:56:09;;;;;;;2.97;2.40;;;;;;;17.48;60.64;100609.09;4994028;28;20062;-49
2021/08/18 07:58:34;;;;;;;4.07;2.60;;;;;;;17.48;60.45;100592.22;4997958;28;20643;-49
2021/08/18 08:01:00;;;;;;;2.30;2.10;;;;;;;17.48;60.53;100606.44;4996020;28;20030;-49
2021/08/18 08:03:25;;;;;;;2.63;2.38;;;;;;;17.46;60.50;100608.28;4993365;28;20026;-49
2021/08/18 08:05:50;;;;;;;2.60;2.40;;;;;;;17.47;60.69;100606.50;4998552;28;20018;-49
2021/08/18 08:08:16;;;;;;;3.10;2.38;;;;;;;17.47;60.53;100615.34;4994640;28;21257;-49
2021/08/18 08:10:41;;;;;;;3.05;2.38;;;;;;;17.46;60.74;100610.94;4997664;28;20561;-49
2021/08/18 08:13:07;;;;;;;2.70;2.45;;;;;;;17.44;60.79;100613.66;4993463;28;20478;-49
2021/08/18 08:15:33;;;;;;;3.85;2.70;;;;;;;17.48;60.64;100610.88;4993591;28;20110;-49
2021/08/18 08:17:59;;;;;;;2.45;2.22;;;;;;;17.47;60.48;100604.69;4998963;28;20112;-49
2021/08/18 08:20:27;;;;;;;2.80;2.25;;;;;;;17.47;60.65;100599.34;4995925;28;20027;-49
2021/08/18 08:22:54;;;;;;;2.30;2.10;;;;;;;17.46;60.77;100602.06;4996365;28;20030;-49
2021/08/18 08:25:20;;;;;;;3.20;2.67;;;;;;;17.45;60.68;100611.88;4994688;28;20033;-49
2021/08/18 08:27:45;;;;;;;2.67;2.10;;;;;;;17.45;60.52;100606.56;4997067;28;20033;-49
2021/08/18 08:30:11;;;;;;;3.67;2.42;;;;;;;17.46;60.58;100618.94;4998119;28;20026;-49
2021/08/18 08:32:38;;;;;;;2.58;2.10;;;;;;;17.46;60.69;100613.63;4992576;28;20034;-49
2021/08/18 08:35:05;;;;;;;2.70;2.50;;;;;;;17.46;60.81;100618.94;4992843;28;20084;-49
2021/08/18 08:38:20;;;;;;;2.53;1.98;;;;;;;17.44;60.87;100618.16;4995512;28;20104;-49
2021/08/18 08:40:46;;;;;;;2.53;2.33;;;;;;;17.45;60.69;100617.22;4994671;28;20026;-49
2021/08/18 08:43:13;;;;;;;2.33;2.13;;;;;;;17.46;60.96;100613.63;4996017;28;20030;-49
2021/08/18 08:45:46;;;;;;;2.90;2.00;;;;;;;17.46;60.89;100616.28;4994247;28;20062;-49
2021/08/18 08:48:11;;;;;;;2.35;2.15;;;;;;;17.47;60.80;100604.69;4991385;28;20022;-49
2021/08/18 08:50:36;;;;;;;1.92;1.70;;;;;;;17.46;60.67;100613.63;4997722;28;20026;-49
2021/08/18 08:53:02;;;;;;;2.42;2.22;;;;;;;17.46;60.96;100608.28;4996218;28;20417;-49
2021/08/18 08:55:27;;;;;;;2.17;1.98;;;;;;;17.44;61.14;100607.50;4995440;28;20030;-49
2021/08/18 08:57:56;;;;;;;2.78;2.17;;;;;;;17.47;60.78;100611.84;4992042;28;20435;-49
2021/08/18 09:00:23;;;;;;;2.13;1.73;;;;;;;17.46;60.78;100613.63;4995438;28;20031;-49
2021/08/18 09:03:06;;;;;;;2.90;2.28;;;;;;;17.46;60.52;100616.28;4997112;28;20058;-49
2021/08/18 09:05:32;;;;;;;2.28;1.85;;;;;;;17.47;60.79;100619.81;4997141;28;20022;-49
2021/08/18 09:07:58;;;;;;;2.28;2.03;;;;;;;17.46;60.95;100624.28;4991614;28;20085;-49
2021/08/18 09:10:24;;;;;;;1.60;1.45;;;;;;;17.46;60.94;100621.63;4990014;28;20051;-50
2021/08/18 09:12:50;;;;;;;2.65;2.00;;;;;;;17.43;60.93;100624.41;4996593;28;20405;-49
2021/08/18 09:15:17;;;;;;;2.03;1.73;;;;;;;17.43;61.21;100629.72;4992919;28;20040;-49
2021/08/18 09:17:42;;;;;;;2.25;1.83;;;;;;;17.41;61.50;100626.25;4994538;28;20109;-47
2021/08/18 09:20:23;;;;;;;2.00;1.80;;;;;;;17.43;61.57;100635.06;4995259;28;20113;-47
2021/08/18 09:23:00;;;;;;;2.17;1.80;;;;;;;17.45;61.79;100627.88;4994603;28;20030;-46
2021/08/18 09:25:27;;;;;;;2.45;2.08;;;;;;;17.42;61.61;100612.88;4991990;28;20052;-47
2021/08/18 09:27:54;;;;;;;2.25;2.05;;;;;;;17.42;61.93;100609.34;4994055;28;20046;-47
2021/08/18 09:30:30;;;;;;;1.52;1.38;;;;;;;17.42;61.74;100607.56;4993532;28;20032;-47
2021/08/18 09:33:38;;;;;;;1.95;1.75;;;;;;;17.43;61.63;100603.06;4990839;28;20038;-47
2021/08/18 09:36:03;;;;;;;2.00;1.80;;;;;;;17.42;61.51;100601.34;4991849;28;20060;-47
2021/08/18 09:38:28;;;;;;;1.83;1.73;;;;;;;17.41;61.42;100595.13;4992529;28;20038;-47
2021/08/18 09:40:54;;;;;;;1.58;1.48;;;;;;;17.43;61.38;100595.06;4997753;28;20440;-47
2021/08/18 09:43:21;;;;;;;1.52;1.10;;;;;;;17.44;61.36;100591.50;4994513;28;20058;-48
2021/08/18 09:45:54;;;;;;;2.65;1.80;;;;;;;17.43;61.45;100587.94;4992417;28;20022;-48
2021/08/18 09:48:21;;;;;;;2.08;1.70;;;;;;;17.46;61.55;100592.28;4993213;28;20362;-48
2021/08/18 09:51:00;;;;;;;1.80;1.70;;;;;;;17.44;61.38;100588.84;4993763;28;20030;-47
2021/08/18 09:53:35;;;;;;;1.65;1.25;;;;;;;17.47;61.27;100578.03;5000245;28;20442;-48
2021/08/18 09:56:04;;;;;;;2.97;1.50;;;;;;;17.49;61.09;100588.63;4981555;28;20559;-48
2021/08/18 09:58:36;;;;;;;1.90;1.70;;;;;;;17.47;61.33;100586.00;4978881;28;20490;-48
2021/08/18 10:01:15;;;;;;;1.40;1.30;;;;;;;17.46;61.43;100588.75;4976992;28;20406;-48
2021/08/18 10:03:45;;;;;;;1.85;1.60;;;;;;;17.47;61.67;100583.34;4980774;28;20393;-48
2021/08/18 10:06:12;;;;;;;1.90;1.45;;;;;;;17.47;61.35;100583.34;4976028;28;20114;-48
2021/08/18 10:08:39;;;;;;;1.73;1.63;;;;;;;17.48;61.38;100574.44;4986585;28;20053;-48
2021/08/18 10:11:07;;;;;;;1.42;1.30;;;;;;;17.49;61.55;100573.50;4974245;28;20442;-48
2021/08/18 10:13:33;;;;;;;3.65;1.67;;;;;;;17.49;61.69;100578.84;4976843;28;20126;-48
2021/08/18 10:15:58;;;;;;;2.40;1.67;;;;;;;17.49;61.46;100570.84;4957981;28;20042;-48
2021/08/18 10:18:34;;;;;;;1.50;1.35;;;;;;;17.49;61.53;100578.84;4979260;28;20026;-48
2021/08/18 10:21:11;;;;;;;1.58;1.40;;;;;;;17.49;61.55;100581.50;4965378;28;20027;-48
2021/08/18 10:23:57;;;;;;;1.70;1.60;;;;;;;17.49;61.50;100575.28;4977967;28;20057;-48
2021/08/18 10:26:32;;;;;;;2.13;1.60;;;;;;;17.48;61.64;100573.56;4979774;28;20066;-48
2021/08/18 10:29:19;;;;;;;1.45;1.20;;;;;;;17.49;61.90;100570.84;4975597;28;20105;-48
2021/08/18 10:31:45;;;;;;;1.65;1.55;;;;;;;17.50;61.99;100571.72;4957039;28;20025;-48
2021/08/18 10:34:22;;;;;;;1.63;1.50;;;;;;;17.49;61.73;100576.19;4980945;28;20057;-48
2021/08/18 10:36:56;;;;;;;1.38;1.27;;;;;;;17.50;61.77;100572.56;4972215;28;20104;-48
2021/08/18 10:39:22;;;;;;;2.17;2.00;;;;;;;17.51;61.79;100574.31;4971368;28;20030;-48
2021/08/18 10:42:03;;;;;;;2.13;1.57;;;;;;;17.50;62.02;100567.25;4980172;28;20027;-47
2021/08/18 10:44:50;;;;;;;1.33;1.23;;;;;;;17.49;61.96;100568.19;4974685;28;20262;-48
2021/08/18 10:47:34;;;;;;;1.63;1.45;;;;;;;17.50;61.86;100569.91;4977121;28;20517;-48
2021/08/18 10:50:02;;;;;;;2.15;1.80;;;;;;;17.51;62.15;100560.97;4977175;28;20054;-48
2021/08/18 10:52:30;;;;;;;1.70;1.40;;;;;;;17.51;61.75;100563.63;4958373;28;20014;-48
2021/08/18 10:55:12;;;;;;;1.67;1.20;;;;;;;17.51;61.92;100568.13;4979865;28;20026;-48
2021/08/18 10:57:47;;;;;;;1.20;1.10;;;;;;;17.50;61.78;100567.25;4999789;28;20025;-48
2021/08/18 11:00:34;;;;;;;3.53;1.65;;;;;;;17.51;61.75;100560.13;4997889;28;20068;-48
2021/08/18 11:03:14;;;;;;;2.00;1.73;;;;;;;17.51;61.85;100576.13;4994829;28;20057;-47
2021/08/18 11:05:40;;;;;;;1.40;1.30;;;;;;;17.52;62.06;100575.19;4995392;28;20030;-48
2021/08/18 11:08:15;;;;;;;1.85;1.73;;;;;;;17.51;61.89;100576.97;4998399;28;20548;-48
2021/08/18 11:10:53;;;;;;;1.65;1.50;;;;;;;17.52;61.69;100581.38;4997821;28;20018;-48
2021/08/18 11:13:34;;;;;;;1.60;1.50;;;;;;;17.52;61.70;100584.06;5000474;28;20080;-48
2021/08/18 11:16:03;;;;;;;1.50;1.40;;;;;;;17.53;61.77;100579.56;4992702;28;20101;-48
2021/08/18 11:18:29;;;;;;;2.90;1.45;;;;;;;17.53;61.79;100577.78;4992082;28;20041;-47
2021/08/18 11:20:55;;;;;;;1.77;1.63;;;;;;;17.51;61.48;100579.63;4999410;28;20045;-47
2021/08/18 11:23:26;;;;;;;1.55;1.45;;;;;;;17.53;61.68;100582.25;4996273;28;20026;-48
2021/08/18 11:25:55;;;;;;;;;;;;;;;17.54;61.35;100582.19;4995678;28;20105;-48